Airfield :







YOU CAN JOIN US ON...

 
LOGIN :

Register | Disclaimer

   EN    FR    IT 

 









Legend :    VFR   Marginal VFR   IFR   Intensive IFR   Very Intensive IFR
Visi :
Ceiling :
>= 8 km
>= 3000ft
5 to 8 km
1000 to 3000 ft
1500m to 5 km
500 to 1000 ft
800 to 1500m
200 to 500 ft
< 800m
< 200 ft
Symbols :   Thunderstorms  Fog  Heavy snow  Heavy precipitations  Wind > 20 kt






- Airport Elevation : 477 ft
- IATA code : YHZ


CYHZ - Halifax Stanfield Int.

CURRENT METAR :
  • 110304Z 22012KT 2SM -RA BR OVC002 11/11 A2977 RMK ST8 SLP084

EXPIRED METARs :
  • 110251Z 21011G18KT 1 1/2SM -RA BR VV001 11/11 A2976 RMK FG8 SLP082
  • 110243Z 22012G18KT 4SM -RA BR OVC001 11/11 A2977 RMK ST8 SLP083
  • 110221Z 21015KT 1 3/4SM -RA BR VV002 11/11 A2975 RMK FG8 SLP078
  • 110207Z 21014KT 1SM R23/6000FT/U R14/P6000FT/U -RA BR VV001 11/11 A2976 RMK FG8 SLP081
  • 110152Z 22014G19KT 1/2SM -RA FG VV001 11/11 A2975 RMK FG8 SLP079
  • 110121Z 21017G23KT 3/4SM R23/P6000FT/N R14/P6000FT/N -RA BR VV001 11/11 A2973 RMK FG8 PRESFR SLP072
  • 110100Z 21017G25KT 4SM -RA BR OVC001 11/11 A2975 RMK ST8 SLP077

TAF TAF CYHZ
Valid from the 11 at 03:00 until the 12 at 00:00 UTC


110238Z 1103/1124 22015G25KT 1/2SM -DZ FG VV001
TEMPO 1103/1108 2SM -RA BR OVC004
BECMG 1104/1106 24015G25KT
FM110800 31015G25KT 2SM -RA BR OVC003
TEMPO 1108/1112 6SM -RA BR OVC007
FM111200 31015G25KT 21/2SM -SHRASNPL BR OVC007
FM111400 33012G22KT 11/2SM -SHSNPL OVC007
PROB40 1114/1116 3/4SM -SHSN
FM111600 33012G22KT 3/4SM -SHSN VV007
PROB30 1116/1118 1/2SM SHSN VV004
FM111800 01012G22KT 1SM -SHSN OVC007
PROB30 1118/1121 3/4SM -SHSN VV006
FM112100 01012G22KT 2SM -SHSN OVC010
FM112300 01008KT 6SM -SHSN OVC015 RMK NXT FCST BY 110600Z



MET'MAP, your aeronautical weather chart ! - Copyright ORBIFLY December 2007 - Disclaimer

ORBIFLY MET'MAP TEAM :

Programming & Development : Alexandra Zaïnal
Concept & original design : Baudouin d'Aumeries
Assistance for programming : Marc-Olivier Méhu
Technical & hardware support : Manuel Goepfert

Contact : metmap@orbifly.com




SOURCES & CREDITS :

   NOAA